logo
Search for airport 
image banner adimage banner adimage banner ad
image banner ad

EDMKD - Markdorf

Located in , Germany

ICAO - ED0046, IATA -

Data provided by Airmate  

General information

Coordinates: N47°42'25" E9°23'22"
Elevation is 1394 feet MSL.
 
View others Airports in Baden-Württemberg

Operational data

Special qualification required
Current time UTC:
Current local time:
Weather at : EDNY - Friedrichshafen ( 10 km )
METAR: EDNY 171320Z 21005KT 160V240 9999 FEW048 23/16 Q1022
TAF: TAF EDNY 171100Z 1712/1721 03004KT CAVOK
View NOTAMs / SUP AIP / TFR affecting this airport [VIEW]
Communications frequencies: [VIEW]

Runways:

RWY identifierQFULength (ft)Width (ft)SurfaceLDA (ft)
1095°164098GRASS1640
28275°164098GRASS1640

Airport contact information

Address: Germany

Other aviation service providers

Aviation club (not for profit)

Segelfliegergruppe Markdorf E.V.

Segelfliegergruppe Markdorf E.V.

Satellite view of EDMKD